Flight Information

DEPARTURE
SALT LAKE CITY, UT
Elevation:
4230
Runways:
16L/34R - 12002x150 - ASPH-G
HB - 60x60 - ASPH-G
HF - 60x60 - ASPH-G
17/35 - 9596x150 - ASPH-G
16R/34L - 12000x150 - CONC-G
14/32 - 4893x150 - ASPH-G
ATIS:
124.75 125.62 801-325-9749
Clearance Delivery:
127.3
Ground:
121.9 (RWY 17-35 and RWY 14-32)
123.775 (RWY 16R-34L and RWY 16L-34R)
Tower:
SALT LAKE CITY TOWER
119.05 (RWY 16L-34R)
118.3 (RWYS 14-32, 17-35)
132.65 (RWY 16R-34L)
DESTINATION
,
Elevation:
TPA:
1000 (est.)


6387.4 NM75° True-15° Var60° HDG

Flight Plan:
(click to file on line)

1. Type
2. Aircraft Identification
3. Aircraft Type / Special Equipment
4. True Airspeed
kts
5. Departure Airport
(ICAO code)
6. Arriving Airport
(ICAO code)
7. Cruising Altitude
ft
8. Alternate Airport
(ICAO code)
9. Route of Flight
10. Remarks


00:00:00 Departure ATIS: Destination ATIS:

Clearance Limit:
Route:
Altitude: Expect in minutes
Frequency:
Transponder: (7500 Hijack / 7600 Lost Comms / 7700 Emergency)


KSLC 010654Z 32012KT 10SM FEW080 SCT095 BKN110 10/03 A2979 RMK AO2 SLP058 T01000028 402000100
Time: 2020-04-01T06:54:00Z
1585726787
Winds: 320 @ 12 kts
Visibility: 10.0 sm
Clouds (AGL): FEW 8000
SCT 9500
BKN 11000
Temperature: 10.0 C
Dew Point: 2.8 C
Pressure: 29.790354 in Hgbr


Notes:

Data extracted from FAA Digital Chart Supplement. Effective: 0901Z Thursday, Mar 26, 2020 to 0901Z Thursday, May 21, 2020
Current ATIS data is provided courtisy of PilotEdge.